Time;durP1;ratioP1;P1;durP2;ratioP2;P2;SDS_P1;SDS_P2;PMS_P1;PMS_P2;Temp;Humidity;BMP_temperature;BMP_pressure;BME280_temperature;BME280_humidity;BME280_pressure;Samples;Min_cycle;Max_cycle;Signal;HPM_P1;HPM_P2
2023/12/04 00:01:22;;;;;;;9.50;4.75;;;9.00;70.00;;;;;;5071747;28;20027;-78
2023/12/04 00:03:47;;;;;;;10.18;4.93;;;9.00;70.00;;;;;;5052743;28;20097;-77
2023/12/04 00:06:14;;;;;;;9.13;4.95;;;8.90;70.30;;;;;;5053048;28;20029;-79
2023/12/04 00:08:40;;;;;;;10.70;4.88;;;8.80;70.40;;;;;;5067855;28;20025;-78
2023/12/04 00:11:06;;;;;;;9.82;4.80;;;8.90;70.40;;;;;;5051658;28;20371;-78
2023/12/04 00:13:32;;;;;;;11.13;5.20;;;8.80;70.60;;;;;;5068903;28;20040;-78
2023/12/04 00:15:58;;;;;;;14.63;5.22;;;8.90;70.80;;;;;;5055844;28;20032;-78
2023/12/04 00:18:23;;;;;;;8.98;5.10;;;8.80;70.70;;;;;;5051906;28;20210;-79
2023/12/04 00:20:49;;;;;;;10.90;5.07;;;8.80;70.70;;;;;;5052024;28;20033;-78
2023/12/04 00:23:15;;;;;;;9.25;4.60;;;8.70;70.80;;;;;;5051886;28;20024;-78
2023/12/04 00:25:40;;;;;;;8.90;4.60;;;8.70;71.00;;;;;;5052054;28;20048;-78
2023/12/04 00:28:06;;;;;;;8.63;4.40;;;8.70;70.90;;;;;;5051569;28;20032;-78
2023/12/04 00:30:32;;;;;;;10.93;5.10;;;8.70;70.90;;;;;;5059421;28;20159;-76
2023/12/04 00:32:57;;;;;;;8.95;4.80;;;8.80;71.70;;;;;;5071873;28;20032;-78
2023/12/04 00:35:23;;;;;;;8.77;4.50;;;8.80;70.80;;;;;;5071898;28;20584;-76
2023/12/04 00:37:49;;;;;;;9.43;4.55;;;8.80;71.00;;;;;;5071962;28;20328;-77
2023/12/04 00:40:15;;;;;;;12.88;4.85;;;8.80;71.10;;;;;;5071582;28;20020;-77
2023/12/04 00:42:40;;;;;;;8.10;4.68;;;8.80;71.20;;;;;;5071551;28;20099;-77
2023/12/04 00:45:06;;;;;;;9.93;4.80;;;8.70;71.20;;;;;;5071713;28;20020;-78
2023/12/04 00:47:32;;;;;;;9.43;4.60;;;8.70;71.70;;;;;;5071848;28;20033;-78
2023/12/04 00:49:58;;;;;;;12.95;4.70;;;8.70;71.40;;;;;;5071537;28;20031;-77
2023/12/04 00:52:24;;;;;;;8.27;4.85;;;8.70;71.30;;;;;;5071394;28;20086;-77
2023/12/04 00:54:49;;;;;;;8.00;4.40;;;8.70;71.10;;;;;;5071454;28;20147;-77
2023/12/04 00:57:15;;;;;;;9.40;4.30;;;8.80;71.70;;;;;;5071531;28;20028;-77
2023/12/04 00:59:41;;;;;;;7.65;4.65;;;8.80;71.20;;;;;;5071917;28;20055;-75
2023/12/04 01:02:07;;;;;;;9.25;4.55;;;8.70;71.10;;;;;;5074162;28;20438;-78
2023/12/04 01:04:33;;;;;;;8.23;4.63;;;8.70;71.50;;;;;;5075446;28;20131;-76
2023/12/04 01:06:58;;;;;;;13.07;4.95;;;8.60;71.50;;;;;;5075201;28;20500;-78
2023/12/04 01:09:24;;;;;;;8.48;4.43;;;8.60;71.50;;;;;;5075439;28;20044;-78
2023/12/04 01:11:55;;;;;;;7.63;4.20;;;8.60;71.30;;;;;;5075199;28;20045;-75
2023/12/04 01:14:21;;;;;;;8.75;4.70;;;8.50;71.20;;;;;;5057279;28;20052;-77
2023/12/04 01:16:47;;;;;;;9.70;4.57;;;8.40;71.30;;;;;;5074898;28;20439;-77
2023/12/04 01:19:13;;;;;;;7.20;4.50;;;8.50;71.40;;;;;;5074937;28;20044;-77
2023/12/04 01:21:39;;;;;;;8.88;4.63;;;8.50;71.40;;;;;;5074735;28;20059;-76
2023/12/04 01:24:05;;;;;;;8.23;4.43;;;8.50;71.50;;;;;;5074888;28;20017;-76
2023/12/04 01:26:31;;;;;;;7.78;4.47;;;8.40;72.10;;;;;;5074971;28;20028;-77
2023/12/04 01:28:57;;;;;;;8.82;4.25;;;8.40;71.50;;;;;;5075077;28;20032;-78
2023/12/04 01:31:22;;;;;;;8.10;4.30;;;8.40;71.50;;;;;;5074892;28;20406;-77
2023/12/04 01:33:48;;;;;;;9.35;4.63;;;8.40;71.50;;;;;;5074892;28;20078;-78
2023/12/04 01:36:14;;;;;;;10.25;4.22;;;8.40;71.80;;;;;;5074630;28;20027;-76
2023/12/04 01:38:39;;;;;;;9.23;4.25;;;8.40;71.60;;;;;;5074563;28;20512;-76
2023/12/04 01:41:06;;;;;;;7.97;4.45;;;8.30;71.80;;;;;;5074404;28;20033;-78
2023/12/04 01:43:31;;;;;;;9.00;4.78;;;8.30;71.90;;;;;;5074028;28;20120;-77
2023/12/04 01:45:59;;;;;;;8.63;4.90;;;8.30;71.80;;;;;;5074378;28;20497;-78
2023/12/04 01:48:25;;;;;;;13.20;4.72;;;8.30;71.60;;;;;;5074085;28;20103;-77
2023/12/04 01:50:52;;;;;;;10.13;4.55;;;8.30;71.70;;;;;;5074001;28;20051;-76
2023/12/04 01:53:17;;;;;;;8.85;4.05;;;8.30;71.70;;;;;;5073951;28;20047;-76
2023/12/04 01:55:43;;;;;;;9.70;4.10;;;8.30;71.70;;;;;;5074255;28;20024;-76
2023/12/04 01:58:10;;;;;;;6.65;4.00;;;8.30;72.10;;;;;;5073945;28;20024;-77
2023/12/04 02:00:35;;;;;;;8.80;4.05;;;8.30;71.90;;;;;;5074361;28;20038;-77
2023/12/04 02:03:01;;;;;;;8.05;4.32;;;8.30;71.80;;;;;;5073673;28;20103;-76
2023/12/04 02:05:28;;;;;;;12.73;5.10;;;8.30;71.80;;;;;;5073490;28;20025;-78
2023/12/04 02:07:55;;;;;;;6.93;4.25;;;8.30;71.90;;;;;;5073843;28;20025;-77
2023/12/04 02:10:21;;;;;;;7.82;4.30;;;8.20;71.60;;;;;;5073603;28;20032;-77
2023/12/04 02:12:48;;;;;;;8.82;4.38;;;8.10;71.70;;;;;;5072379;28;20079;-77
2023/12/04 02:15:13;;;;;;;7.35;3.92;;;8.10;71.80;;;;;;5073645;28;20059;-78
2023/12/04 02:17:40;;;;;;;7.95;4.28;;;8.10;72.20;;;;;;5073544;28;20044;-78
2023/12/04 02:20:07;;;;;;;8.52;3.88;;;8.10;72.00;;;;;;5073745;28;20406;-77
2023/12/04 02:22:33;;;;;;;8.00;4.22;;;8.00;72.70;;;;;;5073697;28;20017;-76
2023/12/04 02:25:00;;;;;;;10.27;4.47;;;8.00;72.00;;;;;;5073817;28;20029;-78
2023/12/04 02:27:32;;;;;;;7.97;4.07;;;7.90;72.50;;;;;;5073569;28;20154;-76
2023/12/04 02:30:02;;;;;;;8.30;3.90;;;7.90;72.50;;;;;;5073243;28;20016;-76
2023/12/04 02:32:31;;;;;;;7.97;4.15;;;7.90;72.60;;;;;;5073552;28;20025;-77
2023/12/04 02:34:59;;;;;;;7.57;4.18;;;7.80;72.60;;;;;;5073645;28;20028;-76
2023/12/04 02:37:26;;;;;;;6.63;4.03;;;7.90;72.90;;;;;;5055328;28;20078;-76
2023/12/04 02:39:54;;;;;;;7.30;4.05;;;7.80;73.00;;;;;;5073316;28;20029;-76
2023/12/04 02:42:21;;;;;;;11.15;4.72;;;7.90;73.00;;;;;;5073141;28;20048;-75
2023/12/04 02:44:46;;;;;;;7.35;4.30;;;7.80;73.00;;;;;;5073033;28;20017;-77
2023/12/04 02:47:12;;;;;;;8.48;4.43;;;7.90;73.50;;;;;;5073009;28;20023;-77
2023/12/04 02:49:38;;;;;;;10.30;4.30;;;7.90;73.30;;;;;;5073488;28;20059;-77
2023/12/04 02:52:04;;;;;;;7.50;4.43;;;7.90;73.20;;;;;;5072906;28;20067;-77
2023/12/04 02:54:30;;;;;;;10.43;4.38;;;7.90;73.60;;;;;;5073074;28;20017;-77
2023/12/04 02:56:55;;;;;;;8.82;4.22;;;8.00;73.30;;;;;;5072777;28;20070;-75
2023/12/04 02:59:21;;;;;;;10.55;4.68;;;7.90;73.20;;;;;;5072628;28;20016;-76
2023/12/04 03:01:47;;;;;;;11.10;4.55;;;7.90;73.30;;;;;;5072568;28;20020;-75
2023/12/04 03:04:13;;;;;;;8.40;4.60;;;7.90;73.60;;;;;;5072728;28;20033;-76
2023/12/04 03:06:38;;;;;;;8.20;4.72;;;7.90;73.40;;;;;;5072474;28;20036;-77
2023/12/04 03:09:04;;;;;;;8.88;4.47;;;8.00;73.50;;;;;;5072433;28;20378;-78
2023/12/04 03:11:30;;;;;;;9.23;4.80;;;8.00;73.30;;;;;;5072473;28;20163;-76
2023/12/04 03:13:56;;;;;;;9.10;4.63;;;8.00;73.20;;;;;;5072688;28;20170;-76
2023/12/04 03:16:22;;;;;;;9.35;4.53;;;8.00;73.00;;;;;;5072650;28;20165;-77
2023/12/04 03:18:48;;;;;;;9.07;5.00;;;8.00;73.00;;;;;;5072402;28;20024;-77
2023/12/04 03:21:14;;;;;;;9.07;4.68;;;7.90;73.60;;;;;;5072817;28;20036;-76
2023/12/04 03:23:39;;;;;;;11.02;4.65;;;7.90;73.90;;;;;;5072111;28;20021;-76
2023/12/04 03:26:05;;;;;;;9.68;4.55;;;7.80;74.00;;;;;;5037390;28;20055;-76
2023/12/04 03:28:31;;;;;;;8.63;4.22;;;7.80;74.30;;;;;;5032499;28;20022;-77
2023/12/04 03:30:56;;;;;;;8.73;4.53;;;7.80;74.50;;;;;;5032449;28;20025;-76
2023/12/04 03:33:22;;;;;;;9.63;4.32;;;7.70;74.50;;;;;;5032267;28;20021;-77
2023/12/04 03:35:48;;;;;;;8.55;3.92;;;7.70;74.50;;;;;;5041440;28;20047;-76
2023/12/04 03:38:13;;;;;;;8.23;4.35;;;7.70;74.40;;;;;;5072357;28;20021;-78
2023/12/04 03:40:39;;;;;;;9.50;4.28;;;7.60;74.40;;;;;;5072363;28;20402;-76
2023/12/04 03:43:05;;;;;;;7.68;4.35;;;7.60;74.70;;;;;;5072324;28;20029;-77
2023/12/04 03:45:31;;;;;;;8.38;4.00;;;7.60;74.50;;;;;;5072184;28;20482;-77
2023/12/04 03:47:56;;;;;;;8.57;4.18;;;7.60;74.70;;;;;;5072212;28;20104;-77
2023/12/04 03:50:22;;;;;;;10.85;4.68;;;7.50;74.40;;;;;;5072469;28;20051;-76
2023/12/04 03:52:48;;;;;;;6.45;3.70;;;7.60;75.00;;;;;;5072247;28;20038;-77
2023/12/04 03:55:14;;;;;;;12.48;4.47;;;7.60;74.70;;;;;;5072132;28;20502;-77
2023/12/04 03:57:40;;;;;;;8.15;4.25;;;7.60;74.80;;;;;;5071712;28;20028;-77
2023/12/04 04:00:06;;;;;;;8.82;4.13;;;7.50;74.80;;;;;;5071835;28;20020;-76
2023/12/04 04:02:31;;;;;;;7.28;5.03;;;7.40;75.40;;;;;;5071889;28;20021;-77
2023/12/04 04:04:57;;;;;;;6.43;3.65;;;7.50;75.20;;;;;;5071735;28;20070;-74
2023/12/04 04:07:23;;;;;;;9.88;4.30;;;7.40;75.30;;;;;;5071391;28;20016;-76
2023/12/04 04:09:48;;;;;;;8.02;4.65;;;7.40;75.30;;;;;;5071763;28;20025;-77
2023/12/04 04:12:14;;;;;;;7.75;3.85;;;7.40;75.20;;;;;;5072009;28;20049;-76
2023/12/04 04:14:40;;;;;;;8.88;4.28;;;7.40;75.30;;;;;;5053935;28;20055;-76
2023/12/04 04:17:05;;;;;;;8.57;4.22;;;7.30;75.40;;;;;;5071559;28;20036;-76
2023/12/04 04:19:31;;;;;;;9.25;4.10;;;7.30;75.70;;;;;;5071829;28;20016;-76
2023/12/04 04:21:57;;;;;;;9.32;4.43;;;7.40;75.60;;;;;;5053497;28;20478;-76
2023/12/04 04:24:22;;;;;;;9.40;4.40;;;7.40;75.50;;;;;;5071775;28;20025;-76
2023/12/04 04:26:48;;;;;;;8.55;4.10;;;7.40;75.40;;;;;;5071797;28;20017;-75
2023/12/04 04:29:14;;;;;;;9.15;4.38;;;7.40;75.50;;;;;;5071438;28;20462;-77
2023/12/04 04:31:39;;;;;;;7.35;4.45;;;7.40;75.60;;;;;;5071259;28;20409;-76
2023/12/04 04:34:05;;;;;;;11.82;4.47;;;7.40;75.70;;;;;;5071282;28;20025;-76
2023/12/04 04:36:31;;;;;;;10.52;4.68;;;7.40;75.70;;;;;;5073308;28;20044;-76
2023/12/04 04:38:56;;;;;;;11.55;4.95;;;7.50;75.80;;;;;;5075950;28;20481;-75
2023/12/04 04:41:23;;;;;;;9.63;4.55;;;7.50;75.60;;;;;;5057502;28;20124;-75
2023/12/04 04:43:48;;;;;;;9.23;4.57;;;7.50;75.50;;;;;;5075692;28;20055;-78
2023/12/04 04:46:14;;;;;;;10.30;4.60;;;7.60;75.30;;;;;;5075437;28;20470;-77
2023/12/04 04:48:40;;;;;;;10.60;5.65;;;7.60;75.60;;;;;;5075391;28;20035;-76
2023/12/04 04:51:06;;;;;;;12.02;5.18;;;7.60;75.30;;;;;;5075275;28;20036;-76
2023/12/04 04:53:32;;;;;;;12.35;5.07;;;7.50;75.60;;;;;;5075326;28;20032;-78
2023/12/04 04:55:58;;;;;;;11.27;4.75;;;7.50;75.30;;;;;;5057182;28;20032;-75
2023/12/04 04:58:24;;;;;;;9.07;4.78;;;7.50;75.40;;;;;;5075022;28;20024;-76
2023/12/04 05:00:49;;;;;;;15.30;4.80;;;7.50;75.40;;;;;;5075687;28;20051;-77
2023/12/04 05:03:15;;;;;;;9.20;5.00;;;7.60;75.40;;;;;;5075359;28;20040;-76
2023/12/04 05:05:41;;;;;;;12.40;4.72;;;7.50;75.00;;;;;;5075412;28;20033;-75
2023/12/04 05:08:06;;;;;;;8.98;5.28;;;7.50;75.90;;;;;;5075419;28;20062;-77
2023/12/04 05:10:32;;;;;;;9.55;4.60;;;7.40;75.90;;;;;;5075026;28;20078;-77
2023/12/04 05:12:58;;;;;;;9.93;4.90;;;7.40;76.50;;;;;;5075079;28;20137;-76
2023/12/04 05:15:24;;;;;;;9.57;4.70;;;7.30;76.20;;;;;;5074785;28;20032;-76
2023/12/04 05:17:51;;;;;;;14.30;5.07;;;7.30;76.00;;;;;;5074903;28;20012;-76
2023/12/04 05:20:16;;;;;;;8.77;5.00;;;7.30;76.10;;;;;;5074907;28;20051;-76
2023/12/04 05:22:42;;;;;;;9.55;5.32;;;7.30;76.10;;;;;;5074696;28;20462;-76
2023/12/04 05:25:08;;;;;;;9.63;5.32;;;7.30;76.10;;;;;;5074639;28;20030;-77
2023/12/04 05:27:34;;;;;;;12.10;5.32;;;7.30;75.80;;;;;;5075045;28;20104;-76
2023/12/04 05:29:59;;;;;;;10.43;5.30;;;7.30;76.00;;;;;;5074689;28;20064;-76
2023/12/04 05:32:25;;;;;;;10.80;5.07;;;7.30;75.70;;;;;;5074519;28;20028;-76
2023/12/04 05:34:51;;;;;;;12.48;4.88;;;7.40;75.80;;;;;;5056939;28;20028;-76
2023/12/04 05:37:16;;;;;;;14.18;5.82;;;7.50;75.70;;;;;;5078001;28;20027;-76
2023/12/04 05:39:42;;;;;;;9.80;5.03;;;7.50;75.50;;;;;;5079050;28;20063;-77
2023/12/04 05:42:08;;;;;;;13.20;5.10;;;7.50;75.60;;;;;;5075035;28;20382;-78
2023/12/04 05:44:34;;;;;;;9.70;5.43;;;7.50;75.90;;;;;;5074909;28;20562;-77
2023/12/04 05:47:00;;;;;;;9.10;4.43;;;7.50;75.90;;;;;;5056468;28;20394;-76
2023/12/04 05:49:26;;;;;;;8.88;4.90;;;7.50;75.40;;;;;;5074464;28;20024;-77
2023/12/04 05:51:52;;;;;;;10.10;4.75;;;7.50;75.50;;;;;;5074967;28;20044;-78
2023/12/04 05:54:18;;;;;;;10.30;5.22;;;7.50;75.80;;;;;;5056505;28;20036;-78
2023/12/04 05:56:43;;;;;;;9.70;5.50;;;7.60;75.40;;;;;;5074860;28;20032;-79
2023/12/04 05:59:09;;;;;;;10.98;5.15;;;7.60;75.00;;;;;;5074558;28;20028;-76
2023/12/04 06:01:35;;;;;;;9.40;4.85;;;7.50;75.00;;;;;;5074530;28;20453;-75
2023/12/04 06:04:01;;;;;;;9.85;5.35;;;7.40;75.40;;;;;;5074531;28;20025;-77
2023/12/04 06:06:27;;;;;;;8.38;4.93;;;7.50;76.10;;;;;;5074561;28;20021;-77
2023/12/04 06:08:52;;;;;;;9.75;5.25;;;7.50;75.80;;;;;;5074025;28;20024;-75
2023/12/04 06:11:18;;;;;;;8.70;4.75;;;7.40;75.60;;;;;;5074335;28;20036;-77
2023/12/04 06:13:44;;;;;;;10.05;4.88;;;7.40;75.60;;;;;;5073967;28;20067;-76
2023/12/04 06:16:10;;;;;;;7.93;4.60;;;7.40;75.80;;;;;;5074238;28;20478;-77
2023/12/04 06:18:35;;;;;;;9.00;4.18;;;7.30;76.10;;;;;;5074781;28;20028;-77
2023/12/04 06:21:01;;;;;;;8.82;4.25;;;7.30;75.80;;;;;;5074430;28;20105;-76
2023/12/04 06:23:27;;;;;;;11.20;4.55;;;7.30;76.20;;;;;;5074347;28;20032;-76
2023/12/04 06:25:53;;;;;;;8.25;3.97;;;7.30;76.30;;;;;;5074357;28;20477;-77
2023/12/04 06:28:19;;;;;;;10.65;4.57;;;7.30;76.20;;;;;;5074440;28;20017;-77
2023/12/04 06:30:45;;;;;;;9.88;4.68;;;7.40;76.40;;;;;;5074523;28;20032;-76
2023/12/04 06:33:12;;;;;;;9.95;4.53;;;7.40;76.10;;;;;;5055943;28;20032;-77
2023/12/04 06:35:39;;;;;;;7.85;4.40;;;7.50;76.30;;;;;;5056395;28;20032;-79
2023/12/04 06:38:07;;;;;;;10.20;4.50;;;7.50;76.10;;;;;;5074079;28;20485;-76
2023/12/04 06:40:34;;;;;;;8.35;4.68;;;7.60;76.00;;;;;;5070355;28;20025;-77
2023/12/04 06:43:00;;;;;;;15.15;4.90;;;7.70;75.50;;;;;;5032048;28;20494;-74
2023/12/04 06:45:27;;;;;;;8.98;4.57;;;7.70;75.50;;;;;;5033505;28;20021;-79
2023/12/04 06:47:54;;;;;;;9.98;4.43;;;7.80;75.40;;;;;;5033626;28;20021;-77
2023/12/04 06:50:20;;;;;;;7.82;4.00;;;8.10;75.10;;;;;;5033748;28;20037;-77
2023/12/04 06:52:45;;;;;;;9.00;4.07;;;8.30;73.80;;;;;;5033443;28;20017;-76
2023/12/04 06:55:12;;;;;;;13.68;5.20;;;8.50;73.10;;;;;;5033564;28;20023;-76
2023/12/04 06:57:38;;;;;;;10.38;4.68;;;8.80;72.70;;;;;;5033423;28;20128;-76
2023/12/04 07:00:06;;;;;;;13.45;5.05;;;9.20;72.10;;;;;;5031416;28;20032;-77
2023/12/04 07:02:32;;;;;;;8.45;4.82;;;9.40;71.20;;;;;;5033109;28;20439;-77
2023/12/04 07:04:57;;;;;;;9.15;5.05;;;9.50;70.40;;;;;;5033067;28;20017;-77
2023/12/04 07:07:23;;;;;;;10.52;4.88;;;9.20;70.80;;;;;;5033116;28;20014;-75
2023/12/04 07:09:49;;;;;;;9.55;4.90;;;8.90;71.10;;;;;;5032738;28;20147;-76
2023/12/04 07:12:14;;;;;;;12.20;4.97;;;8.60;71.30;;;;;;5033057;28;20045;-76
2023/12/04 07:14:40;;;;;;;10.25;5.53;;;8.50;71.90;;;;;;5033069;28;20448;-76
2023/12/04 07:17:06;;;;;;;9.25;4.93;;;8.40;72.20;;;;;;5033061;28;20021;-77
2023/12/04 07:19:32;;;;;;;13.48;5.28;;;8.80;72.70;;;;;;5032729;28;20022;-76
2023/12/04 07:21:57;;;;;;;9.68;5.60;;;9.00;71.20;;;;;;5033078;28;20021;-77
2023/12/04 07:24:23;;;;;;;9.45;5.13;;;9.10;71.20;;;;;;5032854;28;20154;-78
2023/12/04 07:26:49;;;;;;;11.73;5.15;;;8.90;71.20;;;;;;5033168;28;20026;-77
2023/12/04 07:29:14;;;;;;;16.98;5.60;;;8.80;71.30;;;;;;5032917;28;20107;-77
2023/12/04 07:31:41;;;;;;;11.50;5.55;;;8.60;71.60;;;;;;5040090;28;20032;-76
2023/12/04 07:34:07;;;;;;;9.32;5.22;;;8.50;71.80;;;;;;5050725;28;20044;-77
2023/12/04 07:36:33;;;;;;;16.85;6.05;;;8.50;72.40;;;;;;5069724;28;20020;-78
2023/12/04 07:38:58;;;;;;;12.95;5.53;;;8.50;72.50;;;;;;5070165;28;20024;-77
2023/12/04 07:41:24;;;;;;;12.73;5.68;;;8.50;72.30;;;;;;5052303;28;20446;-76
2023/12/04 07:43:50;;;;;;;14.93;5.50;;;8.50;72.50;;;;;;5052296;28;20483;-76
2023/12/04 07:46:16;;;;;;;11.13;5.00;;;8.60;72.60;;;;;;5052319;28;20017;-77
2023/12/04 07:48:43;;;;;;;9.90;4.97;;;8.70;72.40;;;;;;5050944;28;20033;-77
2023/12/04 07:51:09;;;;;;;15.32;5.55;;;8.70;72.00;;;;;;5051193;28;20032;-75
2023/12/04 07:53:35;;;;;;;12.63;5.10;;;8.70;71.80;;;;;;5050501;28;20482;-75
2023/12/04 07:56:03;;;;;;;16.83;5.20;;;8.60;72.00;;;;;;5053374;28;20035;-79
2023/12/04 07:58:29;;;;;;;13.68;5.45;;;8.70;71.90;;;;;;5058250;28;20020;-78
2023/12/04 08:00:56;;;;;;;11.02;5.57;;;8.70;71.70;;;;;;5073377;28;20059;-77
2023/12/04 08:03:23;;;;;;;16.00;6.35;;;8.80;71.80;;;;;;5068517;28;20021;-81
2023/12/04 08:05:50;;;;;;;14.02;5.47;;;8.80;71.80;;;;;;5073869;28;20025;-77
2023/12/04 08:08:15;;;;;;;14.88;6.00;;;8.90;72.40;;;;;;5061484;28;20032;-79
2023/12/04 08:10:41;;;;;;;13.13;6.07;;;8.90;71.90;;;;;;5053317;28;20037;-75
2023/12/04 08:13:07;;;;;;;10.75;5.90;;;9.00;71.90;;;;;;5050602;28;20387;-78
2023/12/04 08:15:32;;;;;;;20.00;6.30;;;9.10;71.80;;;;;;5051953;28;20029;-78
2023/12/04 08:17:58;;;;;;;13.32;6.38;;;9.20;71.60;;;;;;5052414;28;20105;-77
2023/12/04 08:20:24;;;;;;;15.63;6.32;;;9.30;71.40;;;;;;5052642;28;20037;-76
2023/12/04 08:22:49;;;;;;;12.80;6.82;;;9.40;70.80;;;;;;5052407;28;20395;-76
2023/12/04 08:25:15;;;;;;;12.93;6.15;;;9.50;70.90;;;;;;5052020;28;20029;-78
2023/12/04 08:27:41;;;;;;;13.15;6.25;;;9.50;70.70;;;;;;5052518;28;20118;-78
2023/12/04 08:30:07;;;;;;;9.88;5.68;;;9.60;70.90;;;;;;5051985;28;20040;-76
2023/12/04 08:32:33;;;;;;;15.57;6.80;;;9.60;71.00;;;;;;5052212;28;20033;-76
2023/12/04 08:34:59;;;;;;;14.15;6.22;;;9.50;70.90;;;;;;5052278;28;20047;-75
2023/12/04 08:37:25;;;;;;;12.05;6.38;;;9.70;71.00;;;;;;5033444;28;20494;-77
2023/12/04 08:39:50;;;;;;;19.50;6.72;;;9.80;70.90;;;;;;5051797;28;20090;-77
2023/12/04 08:42:16;;;;;;;19.02;7.25;;;9.90;70.70;;;;;;5052429;28;20448;-76
2023/12/04 08:44:42;;;;;;;15.27;6.53;;;10.00;69.90;;;;;;5052201;28;20021;-78
2023/12/04 08:47:08;;;;;;;14.57;6.88;;;10.20;69.60;;;;;;5052115;28;20072;-79
2023/12/04 08:49:34;;;;;;;15.20;7.07;;;10.30;69.10;;;;;;5052129;28;20412;-77
2023/12/04 08:52:00;;;;;;;15.55;7.28;;;10.40;69.10;;;;;;5052325;28;20123;-79
2023/12/04 08:54:25;;;;;;;14.45;7.60;;;10.40;69.20;;;;;;5051941;28;20025;-78
2023/12/04 08:56:51;;;;;;;19.90;7.32;;;10.40;69.50;;;;;;5034094;28;20075;-78
2023/12/04 08:59:17;;;;;;;15.18;7.53;;;10.50;69.40;;;;;;5033915;28;20021;-78
2023/12/04 09:01:43;;;;;;;14.57;7.07;;;10.50;69.10;;;;;;5051482;28;20083;-78
2023/12/04 09:04:09;;;;;;;17.50;7.07;;;10.40;69.10;;;;;;5051715;28;20052;-77
2023/12/04 09:06:35;;;;;;;16.38;7.13;;;10.40;69.40;;;;;;5051630;28;20025;-76
2023/12/04 09:09:02;;;;;;;15.13;7.30;;;10.40;70.00;;;;;;5051995;28;20096;-78
2023/12/04 09:11:28;;;;;;;18.52;7.07;;;10.40;70.00;;;;;;5034243;28;20108;-81
2023/12/04 09:13:54;;;;;;;12.20;6.38;;;10.50;69.90;;;;;;5033567;28;20506;-79
2023/12/04 09:16:20;;;;;;;22.13;8.15;;;10.60;69.80;;;;;;5051342;28;20119;-77
2023/12/04 09:18:46;;;;;;;19.73;7.07;;;10.70;69.60;;;;;;5051335;28;20052;-79
2023/12/04 09:21:12;;;;;;;16.00;8.32;;;10.80;69.60;;;;;;5051496;28;20458;-76
2023/12/04 09:23:38;;;;;;;20.05;7.40;;;10.80;69.50;;;;;;5054702;28;20118;-77
2023/12/04 09:26:04;;;;;;;17.20;7.15;;;10.80;69.80;;;;;;5054985;28;20047;-76
2023/12/04 09:28:30;;;;;;;14.95;7.35;;;10.80;70.10;;;;;;5054946;28;20025;-78
2023/12/04 09:30:55;;;;;;;16.02;7.20;;;10.70;70.00;;;;;;5054688;28;20490;-77
2023/12/04 09:33:21;;;;;;;15.55;6.75;;;10.70;70.30;;;;;;5054934;28;20033;-78
2023/12/04 09:35:47;;;;;;;18.33;7.22;;;10.60;70.40;;;;;;5055287;28;20028;-76
2023/12/04 09:38:12;;;;;;;20.58;6.78;;;10.50;70.80;;;;;;5055037;28;20036;-75
2023/12/04 09:40:38;;;;;;;17.55;7.85;;;10.50;71.20;;;;;;5054741;28;20028;-77
2023/12/04 09:43:06;;;;;;;16.17;6.55;;;10.60;71.80;;;;;;5054820;28;20023;-78
2023/12/04 09:45:33;;;;;;;14.73;6.93;;;10.60;71.20;;;;;;5054523;28;20059;-78
2023/12/04 09:47:59;;;;;;;21.85;7.10;;;10.60;71.20;;;;;;5054967;28;20025;-76
2023/12/04 09:50:25;;;;;;;18.75;8.07;;;10.70;71.10;;;;;;5054396;28;20029;-78
2023/12/04 09:52:52;;;;;;;23.17;7.57;;;10.90;72.20;;;;;;5054301;28;20493;-79
2023/12/04 09:55:19;;;;;;;41.22;9.48;;;11.00;71.30;;;;;;5054390;28;20474;-79
2023/12/04 09:57:46;;;;;;;23.42;7.85;;;11.10;71.30;;;;;;5054619;28;20142;-76
2023/12/04 10:00:13;;;;;;;43.45;8.90;;;11.30;71.30;;;;;;5054852;28;20029;-80
2023/12/04 10:02:40;;;;;;;42.15;8.05;;;11.40;71.20;;;;;;5054547;28;20025;-77
2023/12/04 10:05:07;;;;;;;32.95;7.85;;;11.40;71.10;;;;;;5036538;28;20379;-78
2023/12/04 10:07:33;;;;;;;19.95;7.82;;;11.40;71.30;;;;;;5054287;28;20025;-76
2023/12/04 10:09:59;;;;;;;20.05;8.10;;;11.40;71.40;;;;;;5050537;28;20075;-84
2023/12/04 10:12:26;;;;;;;15.85;7.00;;;11.40;71.70;;;;;;5046968;28;20077;-83
2023/12/04 10:15:06;;;;;;;20.70;8.13;;;11.30;71.60;;;;;;5054379;28;20036;-86
2023/12/04 10:17:37;;;;;;;23.63;7.65;;;11.40;72.10;;;;;;5054166;28;20478;-82
2023/12/04 10:20:28;;;;;;;29.23;8.85;;;11.40;71.80;;;;;;5054911;28;20025;-88
2023/12/04 10:22:58;;;;;;;21.50;8.00;;;11.50;72.10;;;;;;5054726;28;20552;-85
2023/12/04 10:25:28;;;;;;;15.05;7.05;;;11.50;71.90;;;;;;5056095;28;20025;-86
2023/12/04 10:27:54;;;;;;;17.52;7.57;;;11.40;71.90;;;;;;5054698;28;20033;-84
2023/12/04 10:30:28;;;;;;;18.10;7.40;;;11.40;72.20;;;;;;5037055;28;20033;-87
2023/12/04 10:32:55;;;;;;;19.08;7.55;;;11.40;72.80;;;;;;5034569;28;20056;-88
2023/12/04 10:35:22;;;;;;;17.55;7.20;;;11.40;72.40;;;;;;5034056;28;20033;-88
2023/12/04 10:37:53;;;;;;;14.07;7.57;;;11.40;72.40;;;;;;5035080;28;20018;-84
2023/12/04 10:40:26;;;;;;;19.73;6.85;;;11.40;72.60;;;;;;5037681;28;20026;-86
2023/12/04 10:43:09;;;;;;;13.02;6.07;;;11.50;72.70;;;;;;5037424;28;20025;-86
2023/12/04 10:45:37;;;;;;;16.48;7.93;;;11.60;72.60;;;;;;5036748;28;20029;-88
2023/12/04 10:48:06;;;;;;;35.47;9.20;;;11.70;72.60;;;;;;5035875;28;20029;-89
2023/12/04 10:50:39;;;;;;;53.78;10.27;;;11.90;72.40;;;;;;5054371;28;20072;-85
2023/12/04 10:53:07;;;;;;;24.70;8.23;;;12.10;72.00;;;;;;5039449;28;20032;-86
2023/12/04 10:55:33;;;;;;;28.13;9.00;;;12.30;71.90;;;;;;5058329;28;20033;-87
2023/12/04 10:58:06;;;;;;;18.30;7.57;;;12.40;71.80;;;;;;5038373;28;20491;-87
2023/12/04 11:00:39;;;;;;;17.95;7.07;;;12.40;71.50;;;;;;5055694;28;20341;-86
2023/12/04 11:03:08;;;;;;;16.45;8.10;;;12.60;72.20;;;;;;5037898;28;20024;-86
2023/12/04 11:05:38;;;;;;;22.77;8.52;;;12.70;71.60;;;;;;5048698;28;20028;-84
2023/12/04 11:08:07;;;;;;;14.52;7.88;;;12.90;71.50;;;;;;5035837;28;20021;-83
2023/12/04 11:10:34;;;;;;;19.92;7.90;;;13.00;71.50;;;;;;5033236;28;20031;-86
2023/12/04 11:13:12;;;;;;;18.73;8.40;;;13.10;71.40;;;;;;5033114;28;20140;-85
2023/12/04 11:15:43;;;;;;;23.83;10.27;;;13.20;71.40;;;;;;5034904;28;20109;-86
2023/12/04 11:18:13;;;;;;;21.25;9.25;;;13.30;71.40;;;;;;5033500;28;20033;-83
2023/12/04 11:20:50;;;;;;;20.38;8.43;;;13.30;71.10;;;;;;5033574;28;20021;-81
2023/12/04 11:23:16;;;;;;;15.90;8.43;;;13.40;71.20;;;;;;5033142;28;20029;-84
2023/12/04 11:25:44;;;;;;;21.25;8.77;;;13.40;71.10;;;;;;5032806;28;21144;-83
2023/12/04 11:28:10;;;;;;;18.75;8.27;;;13.50;71.30;;;;;;5032451;28;20373;-81
2023/12/04 11:30:37;;;;;;;14.70;7.30;;;13.50;71.40;;;;;;5030879;28;20199;-81
2023/12/04 11:33:04;;;;;;;16.30;6.55;;;13.50;71.40;;;;;;5032552;28;20028;-83
2023/12/04 11:35:30;;;;;;;18.63;6.55;;;13.50;71.60;;;;;;5032740;28;20036;-81
2023/12/04 11:37:56;;;;;;;13.02;5.60;;;13.50;71.80;;;;;;5032342;28;20105;-80
2023/12/04 11:40:22;;;;;;;13.35;6.07;;;13.50;72.00;;;;;;5032749;28;20067;-81
2023/12/04 11:42:48;;;;;;;14.43;5.80;;;13.50;72.00;;;;;;5030969;28;20030;-82
2023/12/04 11:45:20;;;;;;;19.13;7.35;;;13.50;72.20;;;;;;5032735;28;20124;-79
2023/12/04 12:03:40;;;;;;;15.95;7.47;;;14.00;72.10;;;;;;5068121;28;20087;-80
2023/12/04 12:06:06;;;;;;;23.50;7.25;;;14.20;71.80;;;;;;5091497;28;20040;-82
2023/12/04 12:08:32;;;;;;;12.57;4.43;;;14.20;71.80;;;;;;5092069;28;20047;-81
2023/12/04 12:10:58;;;;;;;7.20;3.25;;;14.20;71.90;;;;;;5091738;28;20043;-80
2023/12/04 12:13:26;;;;;;;8.60;3.38;;;14.10;71.60;;;;;;5098817;28;20026;-78
2023/12/04 12:15:52;;;;;;;8.52;3.33;;;14.20;71.70;;;;;;5098695;28;20028;-80
2023/12/04 12:18:19;;;;;;;13.10;3.75;;;14.20;71.60;;;;;;5093078;28;20082;-86
2023/12/04 12:20:44;;;;;;;9.35;3.25;;;14.30;71.80;;;;;;5098398;28;20488;-84
2023/12/04 12:23:10;;;;;;;13.82;4.00;;;14.40;71.70;;;;;;5094317;28;20052;-85
2023/12/04 12:25:36;;;;;;;9.35;3.75;;;14.70;72.10;;;;;;5094325;28;20043;-83
2023/12/04 12:28:03;;;;;;;12.07;3.70;;;15.10;72.00;;;;;;5095073;28;20032;-85
2023/12/04 12:30:29;;;;;;;10.43;3.78;;;15.30;72.60;;;;;;5113266;28;20035;-84
2023/12/04 12:32:54;;;;;;;12.98;4.03;;;15.30;70.30;;;;;;5114741;28;20504;-83
2023/12/04 12:35:20;;;;;;;12.85;4.95;;;15.30;70.10;;;;;;5120461;28;20035;-86
2023/12/04 12:37:46;;;;;;;8.95;4.10;;;15.20;69.70;;;;;;5114574;28;20035;-83
2023/12/04 12:40:12;;;;;;;11.65;3.40;;;15.30;70.10;;;;;;5112999;28;20028;-85
2023/12/04 12:42:41;;;;;;;10.38;3.40;;;15.30;69.40;;;;;;5114095;28;20032;-86
2023/12/04 12:45:11;;;;;;;9.02;3.17;;;15.30;69.30;;;;;;5114418;28;20150;-86
2023/12/04 12:47:37;;;;;;;7.35;2.78;;;15.20;69.10;;;;;;5112970;28;20497;-81
2023/12/04 12:50:03;;;;;;;8.85;2.75;;;15.10;68.80;;;;;;5112821;28;20028;-86
2023/12/04 12:52:29;;;;;;;6.82;2.90;;;15.00;69.30;;;;;;5112811;28;20031;-77
2023/12/04 12:54:55;;;;;;;9.13;3.05;;;15.00;68.20;;;;;;5112564;28;20105;-83
2023/12/04 12:57:21;;;;;;;6.75;2.70;;;14.90;68.40;;;;;;5109178;28;20032;-77
2023/12/04 12:59:47;;;;;;;10.38;2.85;;;14.90;68.30;;;;;;5095970;28;20029;-78